Weather at Washington Dulles International Airport

Public forecast

Using degrees Fahrenheit for public forecast. Weather courtesy of forecast.io.

Current aviation weather report (METAR) for Washington Dulles International Airport

Retrieved 2021/05/12 16:52 UTC (30 minutes ago):

KIAD 121652Z 33008KT 290V350 10SM FEW050 BKN160 BKN250 14/03 A3027 RMK AO2 SLP248 T01440033

Aviation forecast (TAF) for Washington Dulles International Airport

Retrieved 2021/05/12 12:42 UTC (5 hours ago):

TAF KIAD 121140Z 1212/1318 VRB03KT P6SM BKN150 FM121400 34010KT P6SM SCT150 FM122300 35005KT P6SM FEW060 FM131500 34007KT P6SM FEW250